sensor_id;sensor_type;location;lat;lon;timestamp;P1;durP1;ratioP1;P2;durP2;ratioP2
5608;SDS011;2826;51.354;9.588;2022-12-18T00:00:58;41.67;;;13.30;;
5608;SDS011;2826;51.354;9.588;2022-12-18T00:03:24;36.95;;;14.55;;
5608;SDS011;2826;51.354;9.588;2022-12-18T00:05:53;39.75;;;16.13;;
5608;SDS011;2826;51.354;9.588;2022-12-18T00:08:20;27.17;;;10.02;;
5608;SDS011;2826;51.354;9.588;2022-12-18T00:10:47;29.48;;;10.20;;
5608;SDS011;2826;51.354;9.588;2022-12-18T00:13:14;28.52;;;9.18;;
5608;SDS011;2826;51.354;9.588;2022-12-18T00:15:41;30.23;;;10.82;;
5608;SDS011;2826;51.354;9.588;2022-12-18T00:18:08;30.83;;;9.98;;
5608;SDS011;2826;51.354;9.588;2022-12-18T00:20:35;25.27;;;10.25;;
5608;SDS011;2826;51.354;9.588;2022-12-18T00:23:05;26.25;;;11.38;;
5608;SDS011;2826;51.354;9.588;2022-12-18T00:25:32;41.03;;;10.70;;
5608;SDS011;2826;51.354;9.588;2022-12-18T00:27:59;48.35;;;10.95;;
5608;SDS011;2826;51.354;9.588;2022-12-18T00:30:26;36.10;;;13.15;;
5608;SDS011;2826;51.354;9.588;2022-12-18T00:32:54;58.28;;;12.82;;
5608;SDS011;2826;51.354;9.588;2022-12-18T00:35:25;50.28;;;14.30;;
5608;SDS011;2826;51.354;9.588;2022-12-18T00:37:52;57.38;;;11.88;;
5608;SDS011;2826;51.354;9.588;2022-12-18T00:40:20;45.40;;;12.75;;
5608;SDS011;2826;51.354;9.588;2022-12-18T00:42:47;21.17;;;8.95;;
5608;SDS011;2826;51.354;9.588;2022-12-18T00:45:25;29.13;;;10.13;;
5608;SDS011;2826;51.354;9.588;2022-12-18T00:47:55;29.63;;;10.32;;
5608;SDS011;2826;51.354;9.588;2022-12-18T00:50:24;29.40;;;10.13;;
5608;SDS011;2826;51.354;9.588;2022-12-18T00:52:51;36.85;;;10.75;;
5608;SDS011;2826;51.354;9.588;2022-12-18T00:55:20;35.63;;;11.13;;
5608;SDS011;2826;51.354;9.588;2022-12-18T00:57:47;30.42;;;9.70;;
5608;SDS011;2826;51.354;9.588;2022-12-18T01:00:14;27.73;;;10.90;;
5608;SDS011;2826;51.354;9.588;2022-12-18T01:02:43;25.08;;;11.05;;
5608;SDS011;2826;51.354;9.588;2022-12-18T01:05:11;27.00;;;10.65;;
5608;SDS011;2826;51.354;9.588;2022-12-18T01:07:39;21.48;;;8.60;;
5608;SDS011;2826;51.354;9.588;2022-12-18T01:10:06;28.40;;;9.02;;
5608;SDS011;2826;51.354;9.588;2022-12-18T01:12:37;24.35;;;9.10;;
5608;SDS011;2826;51.354;9.588;2022-12-18T01:15:04;19.73;;;8.90;;
5608;SDS011;2826;51.354;9.588;2022-12-18T01:17:32;21.85;;;9.07;;
5608;SDS011;2826;51.354;9.588;2022-12-18T01:20:00;35.63;;;10.45;;
5608;SDS011;2826;51.354;9.588;2022-12-18T01:22:27;26.40;;;8.75;;
5608;SDS011;2826;51.354;9.588;2022-12-18T01:24:54;25.67;;;9.15;;
5608;SDS011;2826;51.354;9.588;2022-12-18T01:27:22;19.42;;;8.75;;
5608;SDS011;2826;51.354;9.588;2022-12-18T01:29:52;21.35;;;8.95;;
5608;SDS011;2826;51.354;9.588;2022-12-18T01:32:19;20.83;;;9.60;;
5608;SDS011;2826;51.354;9.588;2022-12-18T01:34:46;27.00;;;10.48;;
5608;SDS011;2826;51.354;9.588;2022-12-18T01:37:13;17.52;;;8.20;;
5608;SDS011;2826;51.354;9.588;2022-12-18T01:39:40;20.00;;;9.18;;
5608;SDS011;2826;51.354;9.588;2022-12-18T01:42:09;21.98;;;8.77;;
5608;SDS011;2826;51.354;9.588;2022-12-18T01:44:56;25.77;;;7.97;;
5608;SDS011;2826;51.354;9.588;2022-12-18T01:47:32;20.15;;;7.97;;
5608;SDS011;2826;51.354;9.588;2022-12-18T01:50:04;23.85;;;9.15;;
5608;SDS011;2826;51.354;9.588;2022-12-18T01:52:35;30.58;;;9.18;;
5608;SDS011;2826;51.354;9.588;2022-12-18T01:55:07;22.95;;;9.55;;
5608;SDS011;2826;51.354;9.588;2022-12-18T01:57:35;26.83;;;9.60;;
5608;SDS011;2826;51.354;9.588;2022-12-18T02:00:07;30.38;;;8.73;;
5608;SDS011;2826;51.354;9.588;2022-12-18T02:02:40;25.20;;;9.02;;
5608;SDS011;2826;51.354;9.588;2022-12-18T02:05:07;26.33;;;9.75;;
5608;SDS011;2826;51.354;9.588;2022-12-18T02:07:38;23.85;;;9.68;;
5608;SDS011;2826;51.354;9.588;2022-12-18T02:10:14;26.10;;;10.32;;
5608;SDS011;2826;51.354;9.588;2022-12-18T02:12:48;27.50;;;11.65;;
5608;SDS011;2826;51.354;9.588;2022-12-18T02:15:23;23.60;;;9.52;;
5608;SDS011;2826;51.354;9.588;2022-12-18T02:17:55;30.25;;;10.85;;
5608;SDS011;2826;51.354;9.588;2022-12-18T02:20:28;28.98;;;8.93;;
5608;SDS011;2826;51.354;9.588;2022-12-18T02:23:04;28.00;;;10.18;;
5608;SDS011;2826;51.354;9.588;2022-12-18T02:25:40;28.08;;;9.70;;
5608;SDS011;2826;51.354;9.588;2022-12-18T02:28:42;26.65;;;9.35;;
5608;SDS011;2826;51.354;9.588;2022-12-18T02:31:14;28.27;;;9.57;;
5608;SDS011;2826;51.354;9.588;2022-12-18T02:33:44;23.80;;;10.10;;
5608;SDS011;2826;51.354;9.588;2022-12-18T02:36:12;27.48;;;11.32;;
5608;SDS011;2826;51.354;9.588;2022-12-18T02:38:43;30.27;;;10.30;;
5608;SDS011;2826;51.354;9.588;2022-12-18T02:41:16;24.58;;;9.63;;
5608;SDS011;2826;51.354;9.588;2022-12-18T02:43:47;22.05;;;8.80;;
5608;SDS011;2826;51.354;9.588;2022-12-18T02:46:23;28.30;;;9.20;;
5608;SDS011;2826;51.354;9.588;2022-12-18T02:48:55;28.02;;;10.93;;
5608;SDS011;2826;51.354;9.588;2022-12-18T02:51:29;30.85;;;10.18;;
5608;SDS011;2826;51.354;9.588;2022-12-18T02:54:02;28.67;;;10.00;;
5608;SDS011;2826;51.354;9.588;2022-12-18T02:56:39;30.30;;;9.68;;
5608;SDS011;2826;51.354;9.588;2022-12-18T02:59:15;31.27;;;9.63;;
5608;SDS011;2826;51.354;9.588;2022-12-18T03:01:54;30.23;;;9.75;;
5608;SDS011;2826;51.354;9.588;2022-12-18T03:04:26;28.95;;;10.75;;
5608;SDS011;2826;51.354;9.588;2022-12-18T03:06:58;28.25;;;10.30;;
5608;SDS011;2826;51.354;9.588;2022-12-18T03:09:31;25.77;;;9.55;;
5608;SDS011;2826;51.354;9.588;2022-12-18T03:12:04;25.45;;;8.15;;
5608;SDS011;2826;51.354;9.588;2022-12-18T03:14:49;22.42;;;9.07;;
5608;SDS011;2826;51.354;9.588;2022-12-18T03:17:22;28.52;;;11.40;;
5608;SDS011;2826;51.354;9.588;2022-12-18T03:19:53;40.60;;;10.77;;
5608;SDS011;2826;51.354;9.588;2022-12-18T03:22:24;29.48;;;10.32;;
5608;SDS011;2826;51.354;9.588;2022-12-18T03:24:56;32.30;;;9.60;;
5608;SDS011;2826;51.354;9.588;2022-12-18T03:27:29;33.30;;;10.18;;
5608;SDS011;2826;51.354;9.588;2022-12-18T03:30:04;34.28;;;10.55;;
5608;SDS011;2826;51.354;9.588;2022-12-18T03:32:39;27.70;;;10.07;;
5608;SDS011;2826;51.354;9.588;2022-12-18T03:35:10;23.35;;;10.68;;
5608;SDS011;2826;51.354;9.588;2022-12-18T03:37:41;37.47;;;9.63;;
5608;SDS011;2826;51.354;9.588;2022-12-18T03:40:08;33.53;;;10.20;;
5608;SDS011;2826;51.354;9.588;2022-12-18T03:42:39;27.00;;;9.23;;
5608;SDS011;2826;51.354;9.588;2022-12-18T03:45:19;40.97;;;9.52;;
5608;SDS011;2826;51.354;9.588;2022-12-18T03:47:52;32.38;;;10.25;;
5608;SDS011;2826;51.354;9.588;2022-12-18T03:50:37;28.08;;;9.35;;
5608;SDS011;2826;51.354;9.588;2022-12-18T03:53:15;29.45;;;10.55;;
5608;SDS011;2826;51.354;9.588;2022-12-18T03:55:50;22.67;;;8.50;;
5608;SDS011;2826;51.354;9.588;2022-12-18T03:58:20;33.38;;;10.05;;
5608;SDS011;2826;51.354;9.588;2022-12-18T04:00:59;22.13;;;9.65;;
5608;SDS011;2826;51.354;9.588;2022-12-18T04:03:29;23.67;;;9.07;;
5608;SDS011;2826;51.354;9.588;2022-12-18T04:05:58;24.85;;;8.95;;
5608;SDS011;2826;51.354;9.588;2022-12-18T04:08:27;30.80;;;11.45;;
5608;SDS011;2826;51.354;9.588;2022-12-18T04:11:06;29.42;;;10.48;;
5608;SDS011;2826;51.354;9.588;2022-12-18T04:13:35;29.83;;;11.27;;
5608;SDS011;2826;51.354;9.588;2022-12-18T04:16:07;29.48;;;9.02;;
5608;SDS011;2826;51.354;9.588;2022-12-18T04:18:36;23.25;;;9.52;;
5608;SDS011;2826;51.354;9.588;2022-12-18T04:21:03;27.45;;;10.40;;
5608;SDS011;2826;51.354;9.588;2022-12-18T04:23:31;30.98;;;10.23;;
5608;SDS011;2826;51.354;9.588;2022-12-18T04:25:59;23.40;;;11.27;;
5608;SDS011;2826;51.354;9.588;2022-12-18T04:28:40;22.27;;;8.88;;
5608;SDS011;2826;51.354;9.588;2022-12-18T04:31:08;16.73;;;7.80;;
5608;SDS011;2826;51.354;9.588;2022-12-18T04:33:36;22.70;;;9.40;;
5608;SDS011;2826;51.354;9.588;2022-12-18T04:36:03;22.58;;;8.80;;
5608;SDS011;2826;51.354;9.588;2022-12-18T04:38:30;23.95;;;7.43;;
5608;SDS011;2826;51.354;9.588;2022-12-18T04:41:04;22.38;;;8.93;;
5608;SDS011;2826;51.354;9.588;2022-12-18T04:43:31;19.33;;;8.30;;
5608;SDS011;2826;51.354;9.588;2022-12-18T04:46:03;29.75;;;10.30;;
5608;SDS011;2826;51.354;9.588;2022-12-18T04:48:31;23.02;;;8.70;;
5608;SDS011;2826;51.354;9.588;2022-12-18T04:50:58;28.73;;;9.43;;
5608;SDS011;2826;51.354;9.588;2022-12-18T04:53:25;21.30;;;8.93;;
5608;SDS011;2826;51.354;9.588;2022-12-18T04:56:01;22.85;;;8.80;;
5608;SDS011;2826;51.354;9.588;2022-12-18T04:58:29;17.67;;;7.60;;
5608;SDS011;2826;51.354;9.588;2022-12-18T05:00:56;27.75;;;8.82;;
5608;SDS011;2826;51.354;9.588;2022-12-18T05:03:24;22.00;;;9.00;;
5608;SDS011;2826;51.354;9.588;2022-12-18T05:05:50;24.98;;;10.02;;
5608;SDS011;2826;51.354;9.588;2022-12-18T05:08:18;20.05;;;8.05;;
5608;SDS011;2826;51.354;9.588;2022-12-18T05:10:45;22.20;;;7.83;;
5608;SDS011;2826;51.354;9.588;2022-12-18T05:13:12;22.10;;;8.50;;
5608;SDS011;2826;51.354;9.588;2022-12-18T05:15:39;21.75;;;8.82;;
5608;SDS011;2826;51.354;9.588;2022-12-18T05:18:07;23.15;;;10.60;;
5608;SDS011;2826;51.354;9.588;2022-12-18T05:20:36;20.20;;;7.70;;
5608;SDS011;2826;51.354;9.588;2022-12-18T05:23:03;27.65;;;8.85;;
5608;SDS011;2826;51.354;9.588;2022-12-18T05:25:30;15.18;;;7.70;;
5608;SDS011;2826;51.354;9.588;2022-12-18T05:27:57;18.83;;;7.55;;
5608;SDS011;2826;51.354;9.588;2022-12-18T05:30:24;23.25;;;9.45;;
5608;SDS011;2826;51.354;9.588;2022-12-18T05:32:51;19.52;;;8.25;;
5608;SDS011;2826;51.354;9.588;2022-12-18T05:35:17;20.58;;;7.53;;
5608;SDS011;2826;51.354;9.588;2022-12-18T05:37:46;23.10;;;8.75;;
5608;SDS011;2826;51.354;9.588;2022-12-18T05:40:13;16.50;;;7.00;;
5608;SDS011;2826;51.354;9.588;2022-12-18T05:42:40;21.83;;;8.50;;
5608;SDS011;2826;51.354;9.588;2022-12-18T05:45:07;25.30;;;8.70;;
5608;SDS011;2826;51.354;9.588;2022-12-18T05:47:34;23.05;;;9.30;;
5608;SDS011;2826;51.354;9.588;2022-12-18T05:50:01;24.60;;;8.30;;
5608;SDS011;2826;51.354;9.588;2022-12-18T05:52:28;22.20;;;8.02;;
5608;SDS011;2826;51.354;9.588;2022-12-18T05:54:57;22.23;;;7.53;;
5608;SDS011;2826;51.354;9.588;2022-12-18T05:57:25;25.38;;;8.55;;
5608;SDS011;2826;51.354;9.588;2022-12-18T05:59:52;21.57;;;7.00;;
5608;SDS011;2826;51.354;9.588;2022-12-18T06:02:19;24.08;;;8.52;;
5608;SDS011;2826;51.354;9.588;2022-12-18T06:04:46;23.88;;;8.18;;
5608;SDS011;2826;51.354;9.588;2022-12-18T06:07:13;17.80;;;8.68;;
5608;SDS011;2826;51.354;9.588;2022-12-18T06:09:40;18.15;;;8.10;;
5608;SDS011;2826;51.354;9.588;2022-12-18T06:12:08;24.27;;;8.88;;
5608;SDS011;2826;51.354;9.588;2022-12-18T06:14:35;24.30;;;9.50;;
5608;SDS011;2826;51.354;9.588;2022-12-18T06:17:02;23.17;;;8.65;;
5608;SDS011;2826;51.354;9.588;2022-12-18T06:19:29;22.23;;;8.73;;
5608;SDS011;2826;51.354;9.588;2022-12-18T06:21:56;21.33;;;9.20;;
5608;SDS011;2826;51.354;9.588;2022-12-18T06:24:24;21.52;;;8.85;;
5608;SDS011;2826;51.354;9.588;2022-12-18T06:26:51;19.42;;;8.00;;
5608;SDS011;2826;51.354;9.588;2022-12-18T06:29:19;20.85;;;8.35;;
5608;SDS011;2826;51.354;9.588;2022-12-18T06:31:46;19.80;;;7.85;;
5608;SDS011;2826;51.354;9.588;2022-12-18T06:34:12;21.42;;;9.10;;
5608;SDS011;2826;51.354;9.588;2022-12-18T06:36:39;28.52;;;9.20;;
5608;SDS011;2826;51.354;9.588;2022-12-18T06:39:06;20.02;;;8.70;;
5608;SDS011;2826;51.354;9.588;2022-12-18T06:41:33;20.27;;;7.78;;
5608;SDS011;2826;51.354;9.588;2022-12-18T06:44:00;14.73;;;6.63;;
5608;SDS011;2826;51.354;9.588;2022-12-18T06:46:28;17.55;;;6.55;;
5608;SDS011;2826;51.354;9.588;2022-12-18T06:48:54;17.02;;;7.85;;
5608;SDS011;2826;51.354;9.588;2022-12-18T06:51:22;18.35;;;7.93;;
5608;SDS011;2826;51.354;9.588;2022-12-18T06:53:49;22.23;;;7.72;;
5608;SDS011;2826;51.354;9.588;2022-12-18T06:56:16;20.80;;;7.95;;
5608;SDS011;2826;51.354;9.588;2022-12-18T06:58:43;16.90;;;8.80;;
5608;SDS011;2826;51.354;9.588;2022-12-18T07:01:10;13.73;;;6.63;;
5608;SDS011;2826;51.354;9.588;2022-12-18T07:03:39;17.75;;;8.00;;
5608;SDS011;2826;51.354;9.588;2022-12-18T07:06:12;25.85;;;8.90;;
5608;SDS011;2826;51.354;9.588;2022-12-18T07:08:40;17.60;;;7.72;;
5608;SDS011;2826;51.354;9.588;2022-12-18T07:11:07;14.52;;;6.40;;
5608;SDS011;2826;51.354;9.588;2022-12-18T07:13:34;22.35;;;8.02;;
5608;SDS011;2826;51.354;9.588;2022-12-18T07:16:05;17.10;;;7.85;;
5608;SDS011;2826;51.354;9.588;2022-12-18T07:18:33;21.08;;;8.52;;
5608;SDS011;2826;51.354;9.588;2022-12-18T07:21:05;17.13;;;7.95;;
5608;SDS011;2826;51.354;9.588;2022-12-18T07:23:33;17.30;;;7.32;;
5608;SDS011;2826;51.354;9.588;2022-12-18T07:26:02;19.45;;;7.57;;
5608;SDS011;2826;51.354;9.588;2022-12-18T07:28:29;21.57;;;7.73;;
5608;SDS011;2826;51.354;9.588;2022-12-18T07:30:56;21.23;;;9.63;;
5608;SDS011;2826;51.354;9.588;2022-12-18T07:33:22;22.00;;;9.05;;
5608;SDS011;2826;51.354;9.588;2022-12-18T07:35:49;18.88;;;8.30;;
5608;SDS011;2826;51.354;9.588;2022-12-18T07:38:18;19.35;;;8.95;;
5608;SDS011;2826;51.354;9.588;2022-12-18T07:40:45;31.25;;;8.80;;
5608;SDS011;2826;51.354;9.588;2022-12-18T07:43:11;22.40;;;9.82;;
5608;SDS011;2826;51.354;9.588;2022-12-18T07:45:38;33.88;;;11.85;;
5608;SDS011;2826;51.354;9.588;2022-12-18T07:48:04;24.70;;;10.43;;
5608;SDS011;2826;51.354;9.588;2022-12-18T07:50:31;18.38;;;9.27;;
5608;SDS011;2826;51.354;9.588;2022-12-18T07:52:58;27.20;;;10.55;;
5608;SDS011;2826;51.354;9.588;2022-12-18T07:55:30;28.40;;;10.50;;
5608;SDS011;2826;51.354;9.588;2022-12-18T07:57:59;20.55;;;9.15;;
5608;SDS011;2826;51.354;9.588;2022-12-18T08:00:27;28.38;;;9.95;;
5608;SDS011;2826;51.354;9.588;2022-12-18T08:02:54;19.70;;;9.13;;
5608;SDS011;2826;51.354;9.588;2022-12-18T08:05:21;19.30;;;8.93;;
5608;SDS011;2826;51.354;9.588;2022-12-18T08:07:48;22.67;;;10.38;;
5608;SDS011;2826;51.354;9.588;2022-12-18T08:10:15;22.63;;;9.90;;
5608;SDS011;2826;51.354;9.588;2022-12-18T08:12:43;34.28;;;12.88;;
5608;SDS011;2826;51.354;9.588;2022-12-18T08:15:10;44.88;;;12.80;;
5608;SDS011;2826;51.354;9.588;2022-12-18T08:17:37;42.90;;;14.82;;
5608;SDS011;2826;51.354;9.588;2022-12-18T08:20:04;42.58;;;15.85;;
5608;SDS011;2826;51.354;9.588;2022-12-18T08:22:33;49.10;;;16.65;;
5608;SDS011;2826;51.354;9.588;2022-12-18T08:25:00;42.45;;;15.02;;
5608;SDS011;2826;51.354;9.588;2022-12-18T08:27:27;47.78;;;16.80;;
5608;SDS011;2826;51.354;9.588;2022-12-18T08:29:55;37.95;;;14.23;;
5608;SDS011;2826;51.354;9.588;2022-12-18T08:32:21;44.10;;;16.50;;
5608;SDS011;2826;51.354;9.588;2022-12-18T08:34:48;40.55;;;14.32;;
5608;SDS011;2826;51.354;9.588;2022-12-18T08:37:15;29.50;;;12.18;;
5608;SDS011;2826;51.354;9.588;2022-12-18T08:39:42;27.88;;;10.68;;
5608;SDS011;2826;51.354;9.588;2022-12-18T08:42:09;31.10;;;12.50;;
5608;SDS011;2826;51.354;9.588;2022-12-18T08:44:55;33.22;;;10.10;;
5608;SDS011;2826;51.354;9.588;2022-12-18T08:47:22;34.10;;;12.35;;
5608;SDS011;2826;51.354;9.588;2022-12-18T08:49:49;29.65;;;10.68;;
5608;SDS011;2826;51.354;9.588;2022-12-18T08:52:16;30.42;;;11.57;;
5608;SDS011;2826;51.354;9.588;2022-12-18T08:54:43;25.38;;;10.57;;
5608;SDS011;2826;51.354;9.588;2022-12-18T08:57:09;30.88;;;10.65;;
5608;SDS011;2826;51.354;9.588;2022-12-18T08:59:36;21.25;;;8.95;;
5608;SDS011;2826;51.354;9.588;2022-12-18T09:02:05;26.33;;;9.10;;
5608;SDS011;2826;51.354;9.588;2022-12-18T09:04:32;18.38;;;9.45;;
5608;SDS011;2826;51.354;9.588;2022-12-18T09:06:58;27.52;;;8.20;;
5608;SDS011;2826;51.354;9.588;2022-12-18T09:09:25;23.38;;;8.85;;
5608;SDS011;2826;51.354;9.588;2022-12-18T09:11:52;21.83;;;9.00;;
5608;SDS011;2826;51.354;9.588;2022-12-18T09:14:19;21.83;;;9.55;;
5608;SDS011;2826;51.354;9.588;2022-12-18T09:16:46;23.80;;;8.90;;
5608;SDS011;2826;51.354;9.588;2022-12-18T09:19:14;22.70;;;8.05;;
5608;SDS011;2826;51.354;9.588;2022-12-18T09:21:41;24.38;;;10.10;;
5608;SDS011;2826;51.354;9.588;2022-12-18T09:24:08;25.40;;;9.40;;
5608;SDS011;2826;51.354;9.588;2022-12-18T09:26:39;21.77;;;9.57;;
5608;SDS011;2826;51.354;9.588;2022-12-18T09:29:06;19.53;;;9.20;;
5608;SDS011;2826;51.354;9.588;2022-12-18T09:31:34;28.77;;;12.30;;
5608;SDS011;2826;51.354;9.588;2022-12-18T09:34:02;23.60;;;9.93;;
5608;SDS011;2826;51.354;9.588;2022-12-18T09:36:31;24.10;;;11.10;;
5608;SDS011;2826;51.354;9.588;2022-12-18T09:38:58;34.30;;;11.50;;
5608;SDS011;2826;51.354;9.588;2022-12-18T09:41:31;27.30;;;9.97;;
5608;SDS011;2826;51.354;9.588;2022-12-18T09:44:05;20.60;;;10.10;;
5608;SDS011;2826;51.354;9.588;2022-12-18T09:46:42;30.20;;;11.87;;
5608;SDS011;2826;51.354;9.588;2022-12-18T09:49:12;28.47;;;10.50;;
5608;SDS011;2826;51.354;9.588;2022-12-18T09:51:44;28.17;;;11.57;;
5608;SDS011;2826;51.354;9.588;2022-12-18T09:54:18;21.03;;;8.97;;
5608;SDS011;2826;51.354;9.588;2022-12-18T09:56:48;22.47;;;9.37;;
5608;SDS011;2826;51.354;9.588;2022-12-18T09:59:18;22.37;;;8.63;;
5608;SDS011;2826;51.354;9.588;2022-12-18T10:01:50;20.27;;;8.77;;
5608;SDS011;2826;51.354;9.588;2022-12-18T10:04:17;24.13;;;10.50;;
5608;SDS011;2826;51.354;9.588;2022-12-18T10:06:48;20.10;;;9.87;;
5608;SDS011;2826;51.354;9.588;2022-12-18T10:09:26;18.60;;;8.90;;
5608;SDS011;2826;51.354;9.588;2022-12-18T10:12:00;20.50;;;8.73;;
5608;SDS011;2826;51.354;9.588;2022-12-18T10:14:35;18.50;;;10.17;;
5608;SDS011;2826;51.354;9.588;2022-12-18T10:17:12;22.60;;;10.53;;
5608;SDS011;2826;51.354;9.588;2022-12-18T10:19:46;18.43;;;10.03;;
5608;SDS011;2826;51.354;9.588;2022-12-18T10:22:23;25.10;;;12.03;;
5608;SDS011;2826;51.354;9.588;2022-12-18T10:24:59;33.30;;;11.43;;
5608;SDS011;2826;51.354;9.588;2022-12-18T10:27:32;38.83;;;14.27;;
5608;SDS011;2826;51.354;9.588;2022-12-18T10:29:58;44.20;;;17.93;;
5608;SDS011;2826;51.354;9.588;2022-12-18T10:32:29;31.40;;;12.90;;
5608;SDS011;2826;51.354;9.588;2022-12-18T10:34:57;30.67;;;12.10;;
5608;SDS011;2826;51.354;9.588;2022-12-18T10:37:28;30.00;;;12.13;;
5608;SDS011;2826;51.354;9.588;2022-12-18T10:40:06;26.17;;;13.53;;
5608;SDS011;2826;51.354;9.588;2022-12-18T10:42:36;31.50;;;14.47;;
5608;SDS011;2826;51.354;9.588;2022-12-18T10:45:07;37.87;;;15.27;;
5608;SDS011;2826;51.354;9.588;2022-12-18T10:47:37;26.03;;;9.80;;
5608;SDS011;2826;51.354;9.588;2022-12-18T10:50:18;38.33;;;12.77;;
5608;SDS011;2826;51.354;9.588;2022-12-18T10:52:54;24.20;;;11.17;;
5608;SDS011;2826;51.354;9.588;2022-12-18T10:55:23;32.03;;;13.63;;
5608;SDS011;2826;51.354;9.588;2022-12-18T10:58:05;21.03;;;10.80;;
5608;SDS011;2826;51.354;9.588;2022-12-18T11:00:42;31.80;;;11.70;;
5608;SDS011;2826;51.354;9.588;2022-12-18T11:03:28;21.67;;;11.23;;
5608;SDS011;2826;51.354;9.588;2022-12-18T11:06:04;26.93;;;11.20;;
5608;SDS011;2826;51.354;9.588;2022-12-18T11:08:34;31.93;;;12.63;;
5608;SDS011;2826;51.354;9.588;2022-12-18T11:11:02;26.97;;;11.57;;
5608;SDS011;2826;51.354;9.588;2022-12-18T11:13:33;32.23;;;11.73;;
5608;SDS011;2826;51.354;9.588;2022-12-18T11:16:00;34.37;;;14.23;;
5608;SDS011;2826;51.354;9.588;2022-12-18T11:18:28;36.63;;;15.80;;
5608;SDS011;2826;51.354;9.588;2022-12-18T11:20:57;33.37;;;12.70;;
5608;SDS011;2826;51.354;9.588;2022-12-18T11:23:28;21.30;;;10.93;;
5608;SDS011;2826;51.354;9.588;2022-12-18T11:25:57;29.83;;;12.43;;
5608;SDS011;2826;51.354;9.588;2022-12-18T11:28:33;27.73;;;12.87;;
5608;SDS011;2826;51.354;9.588;2022-12-18T11:33:58;33.50;;;15.67;;
5608;SDS011;2826;51.354;9.588;2022-12-18T11:36:28;58.03;;;22.53;;
5608;SDS011;2826;51.354;9.588;2022-12-18T11:38:59;28.20;;;11.23;;
5608;SDS011;2826;51.354;9.588;2022-12-18T11:41:34;23.30;;;11.23;;
5608;SDS011;2826;51.354;9.588;2022-12-18T11:44:24;24.80;;;10.97;;
5608;SDS011;2826;51.354;9.588;2022-12-18T11:46:56;28.63;;;11.90;;
5608;SDS011;2826;51.354;9.588;2022-12-18T11:49:28;44.17;;;17.40;;
5608;SDS011;2826;51.354;9.588;2022-12-18T11:52:00;29.50;;;13.57;;
5608;SDS011;2826;51.354;9.588;2022-12-18T11:54:34;33.33;;;14.53;;
5608;SDS011;2826;51.354;9.588;2022-12-18T11:57:04;31.63;;;14.27;;
5608;SDS011;2826;51.354;9.588;2022-12-18T11:59:40;33.10;;;13.40;;
5608;SDS011;2826;51.354;9.588;2022-12-18T12:02:29;28.00;;;12.80;;
5608;SDS011;2826;51.354;9.588;2022-12-18T12:05:23;27.60;;;12.70;;
5608;SDS011;2826;51.354;9.588;2022-12-18T12:07:59;39.50;;;16.20;;
5608;SDS011;2826;51.354;9.588;2022-12-18T12:10:36;41.00;;;14.37;;
5608;SDS011;2826;51.354;9.588;2022-12-18T12:13:17;38.27;;;17.73;;
5608;SDS011;2826;51.354;9.588;2022-12-18T12:15:58;33.33;;;14.03;;
5608;SDS011;2826;51.354;9.588;2022-12-18T12:18:36;35.03;;;14.43;;
5608;SDS011;2826;51.354;9.588;2022-12-18T12:21:13;45.37;;;13.97;;
5608;SDS011;2826;51.354;9.588;2022-12-18T12:23:48;26.30;;;11.83;;
5608;SDS011;2826;51.354;9.588;2022-12-18T12:26:23;31.37;;;12.50;;
5608;SDS011;2826;51.354;9.588;2022-12-18T12:29:01;29.23;;;13.63;;
5608;SDS011;2826;51.354;9.588;2022-12-18T12:31:47;41.97;;;18.37;;
5608;SDS011;2826;51.354;9.588;2022-12-18T12:34:26;32.20;;;14.27;;
5608;SDS011;2826;51.354;9.588;2022-12-18T12:37:05;26.27;;;12.33;;
5608;SDS011;2826;51.354;9.588;2022-12-18T12:39:44;29.00;;;12.60;;
5608;SDS011;2826;51.354;9.588;2022-12-18T12:42:15;25.63;;;12.17;;
5608;SDS011;2826;51.354;9.588;2022-12-18T12:45:06;26.70;;;13.57;;
5608;SDS011;2826;51.354;9.588;2022-12-18T12:47:43;30.40;;;13.97;;
5608;SDS011;2826;51.354;9.588;2022-12-18T12:50:13;35.33;;;14.57;;
5608;SDS011;2826;51.354;9.588;2022-12-18T12:52:43;27.80;;;12.23;;
5608;SDS011;2826;51.354;9.588;2022-12-18T12:55:14;22.73;;;11.90;;
5608;SDS011;2826;51.354;9.588;2022-12-18T12:57:46;34.03;;;12.20;;
5608;SDS011;2826;51.354;9.588;2022-12-18T13:00:19;24.10;;;11.37;;
5608;SDS011;2826;51.354;9.588;2022-12-18T13:02:49;25.93;;;12.00;;
5608;SDS011;2826;51.354;9.588;2022-12-18T13:05:23;30.30;;;12.47;;
5608;SDS011;2826;51.354;9.588;2022-12-18T13:07:57;30.60;;;11.73;;
5608;SDS011;2826;51.354;9.588;2022-12-18T13:10:32;21.57;;;12.10;;
5608;SDS011;2826;51.354;9.588;2022-12-18T13:13:06;28.40;;;13.23;;
5608;SDS011;2826;51.354;9.588;2022-12-18T13:15:38;26.10;;;12.97;;
5608;SDS011;2826;51.354;9.588;2022-12-18T13:18:13;49.37;;;21.37;;
5608;SDS011;2826;51.354;9.588;2022-12-18T13:20:44;33.17;;;17.23;;
5608;SDS011;2826;51.354;9.588;2022-12-18T13:23:31;40.73;;;16.50;;
5608;SDS011;2826;51.354;9.588;2022-12-18T13:28:58;22.93;;;12.10;;
5608;SDS011;2826;51.354;9.588;2022-12-18T13:34:35;31.57;;;15.73;;
5608;SDS011;2826;51.354;9.588;2022-12-18T13:43:25;31.07;;;14.73;;
5608;SDS011;2826;51.354;9.588;2022-12-18T13:45:59;32.87;;;14.43;;
5608;SDS011;2826;51.354;9.588;2022-12-18T13:48:28;34.07;;;15.33;;
5608;SDS011;2826;51.354;9.588;2022-12-18T13:51:00;33.97;;;14.17;;
5608;SDS011;2826;51.354;9.588;2022-12-18T13:53:30;31.80;;;13.40;;
5608;SDS011;2826;51.354;9.588;2022-12-18T13:56:01;36.90;;;13.73;;
5608;SDS011;2826;51.354;9.588;2022-12-18T13:58:29;45.63;;;17.00;;
5608;SDS011;2826;51.354;9.588;2022-12-18T14:00:56;43.00;;;18.20;;
5608;SDS011;2826;51.354;9.588;2022-12-18T14:03:25;48.63;;;18.63;;
5608;SDS011;2826;51.354;9.588;2022-12-18T14:06:00;50.30;;;21.73;;
5608;SDS011;2826;51.354;9.588;2022-12-18T14:08:35;43.60;;;20.63;;
5608;SDS011;2826;51.354;9.588;2022-12-18T14:11:05;42.60;;;19.20;;
5608;SDS011;2826;51.354;9.588;2022-12-18T14:13:35;36.13;;;16.43;;
5608;SDS011;2826;51.354;9.588;2022-12-18T14:16:06;33.20;;;16.30;;
5608;SDS011;2826;51.354;9.588;2022-12-18T14:18:37;55.83;;;26.20;;
5608;SDS011;2826;51.354;9.588;2022-12-18T14:21:17;32.40;;;14.97;;
5608;SDS011;2826;51.354;9.588;2022-12-18T14:23:47;37.90;;;15.57;;
5608;SDS011;2826;51.354;9.588;2022-12-18T14:26:20;29.23;;;14.13;;
5608;SDS011;2826;51.354;9.588;2022-12-18T14:28:50;27.60;;;13.70;;
5608;SDS011;2826;51.354;9.588;2022-12-18T14:31:17;33.57;;;15.27;;
5608;SDS011;2826;51.354;9.588;2022-12-18T14:33:45;44.63;;;16.23;;
5608;SDS011;2826;51.354;9.588;2022-12-18T14:36:14;34.13;;;15.30;;
5608;SDS011;2826;51.354;9.588;2022-12-18T14:38:47;27.17;;;11.93;;
5608;SDS011;2826;51.354;9.588;2022-12-18T14:41:16;27.63;;;11.20;;
5608;SDS011;2826;51.354;9.588;2022-12-18T14:43:45;22.80;;;12.00;;
5608;SDS011;2826;51.354;9.588;2022-12-18T14:46:27;28.83;;;12.63;;
5608;SDS011;2826;51.354;9.588;2022-12-18T14:48:56;35.43;;;14.17;;
5608;SDS011;2826;51.354;9.588;2022-12-18T14:51:25;33.13;;;13.93;;
5608;SDS011;2826;51.354;9.588;2022-12-18T14:53:53;26.67;;;13.83;;
5608;SDS011;2826;51.354;9.588;2022-12-18T14:56:22;37.73;;;15.97;;
5608;SDS011;2826;51.354;9.588;2022-12-18T14:58:51;30.17;;;13.47;;
5608;SDS011;2826;51.354;9.588;2022-12-18T15:01:21;31.67;;;14.20;;
5608;SDS011;2826;51.354;9.588;2022-12-18T15:03:51;30.37;;;15.47;;
5608;SDS011;2826;51.354;9.588;2022-12-18T15:06:28;34.77;;;16.70;;
5608;SDS011;2826;51.354;9.588;2022-12-18T15:08:58;29.70;;;13.70;;
5608;SDS011;2826;51.354;9.588;2022-12-18T15:11:27;31.43;;;14.80;;
5608;SDS011;2826;51.354;9.588;2022-12-18T15:13:57;30.10;;;14.50;;
5608;SDS011;2826;51.354;9.588;2022-12-18T15:16:24;33.40;;;16.87;;
5608;SDS011;2826;51.354;9.588;2022-12-18T15:18:51;33.13;;;15.73;;
5608;SDS011;2826;51.354;9.588;2022-12-18T15:21:19;43.40;;;19.50;;
5608;SDS011;2826;51.354;9.588;2022-12-18T15:23:48;42.50;;;17.90;;
5608;SDS011;2826;51.354;9.588;2022-12-18T15:26:18;31.97;;;13.20;;
5608;SDS011;2826;51.354;9.588;2022-12-18T15:28:46;33.93;;;15.53;;